sensor_id;sensor_type;location;lat;lon;timestamp;temperature;humidity
15922;DHT22;8060;50.948;3.146;2022-08-21T05:46:16;15.50;99.90
15922;DHT22;8060;50.948;3.146;2022-08-21T05:48:44;15.50;99.90
15922;DHT22;8060;50.948;3.146;2022-08-21T05:51:14;15.60;99.90
15922;DHT22;8060;50.948;3.146;2022-08-21T05:53:44;15.80;99.90
15922;DHT22;8060;50.948;3.146;2022-08-21T05:56:13;15.90;99.90
15922;DHT22;8060;50.948;3.146;2022-08-21T05:58:42;16.10;99.90
15922;DHT22;8060;50.948;3.146;2022-08-21T06:01:10;16.20;99.90
15922;DHT22;8060;50.948;3.146;2022-08-21T06:03:41;16.30;99.90
15922;DHT22;8060;50.948;3.146;2022-08-21T06:06:09;16.50;99.90
15922;DHT22;8060;50.948;3.146;2022-08-21T06:08:37;16.60;99.90
15922;DHT22;8060;50.948;3.146;2022-08-21T06:11:06;16.60;99.90
15922;DHT22;8060;50.948;3.146;2022-08-21T06:13:34;16.70;99.90
15922;DHT22;8060;50.948;3.146;2022-08-21T06:16:05;16.80;99.90
15922;DHT22;8060;50.948;3.146;2022-08-21T06:18:34;16.90;99.90
15922;DHT22;8060;50.948;3.146;2022-08-21T06:21:05;17.00;99.90
15922;DHT22;8060;50.948;3.146;2022-08-21T06:23:34;17.10;99.90
15922;DHT22;8060;50.948;3.146;2022-08-21T06:26:03;17.20;99.90
15922;DHT22;8060;50.948;3.146;2022-08-21T06:28:32;17.30;99.90
15922;DHT22;8060;50.948;3.146;2022-08-21T06:31:00;17.30;99.90
15922;DHT22;8060;50.948;3.146;2022-08-21T06:33:29;17.40;99.90
15922;DHT22;8060;50.948;3.146;2022-08-21T06:35:58;17.50;99.90
15922;DHT22;8060;50.948;3.146;2022-08-21T06:38:28;17.60;99.90
15922;DHT22;8060;50.948;3.146;2022-08-21T06:40:57;17.70;99.90
15922;DHT22;8060;50.948;3.146;2022-08-21T06:43:26;17.80;99.90
15922;DHT22;8060;50.948;3.146;2022-08-21T06:46:06;18.00;99.90
15922;DHT22;8060;50.948;3.146;2022-08-21T06:48:34;18.10;99.90
15922;DHT22;8060;50.948;3.146;2022-08-21T06:51:03;18.20;99.90
15922;DHT22;8060;50.948;3.146;2022-08-21T06:53:33;18.20;99.90
15922;DHT22;8060;50.948;3.146;2022-08-21T06:56:01;18.20;99.90
15922;DHT22;8060;50.948;3.146;2022-08-21T06:58:29;18.10;99.90
15922;DHT22;8060;50.948;3.146;2022-08-21T07:00:57;18.10;99.90
15922;DHT22;8060;50.948;3.146;2022-08-21T07:03:29;18.20;99.90
15922;DHT22;8060;50.948;3.146;2022-08-21T07:05:58;18.20;99.90
15922;DHT22;8060;50.948;3.146;2022-08-21T07:08:27;18.30;99.90
15922;DHT22;8060;50.948;3.146;2022-08-21T07:10:59;18.40;99.90
15922;DHT22;8060;50.948;3.146;2022-08-21T07:13:28;18.40;99.90
15922;DHT22;8060;50.948;3.146;2022-08-21T07:15:56;18.40;99.90
15922;DHT22;8060;50.948;3.146;2022-08-21T07:18:29;18.60;99.90
15922;DHT22;8060;50.948;3.146;2022-08-21T07:20:57;18.70;99.90
15922;DHT22;8060;50.948;3.146;2022-08-21T07:23:28;18.90;99.90
15922;DHT22;8060;50.948;3.146;2022-08-21T07:25:57;19.00;99.90
15922;DHT22;8060;50.948;3.146;2022-08-21T07:28:26;19.20;99.90
15922;DHT22;8060;50.948;3.146;2022-08-21T07:30:57;19.30;99.90
15922;DHT22;8060;50.948;3.146;2022-08-21T07:33:26;19.40;99.90
15922;DHT22;8060;50.948;3.146;2022-08-21T07:35:55;19.40;99.90
15922;DHT22;8060;50.948;3.146;2022-08-21T07:38:24;19.50;99.90
15922;DHT22;8060;50.948;3.146;2022-08-21T07:40:54;19.40;99.90
15922;DHT22;8060;50.948;3.146;2022-08-21T07:43:25;19.50;99.90
15922;DHT22;8060;50.948;3.146;2022-08-21T07:45:53;19.50;99.90
15922;DHT22;8060;50.948;3.146;2022-08-21T07:48:22;19.50;99.90
15922;DHT22;8060;50.948;3.146;2022-08-21T07:50:51;19.50;99.90
15922;DHT22;8060;50.948;3.146;2022-08-21T07:53:19;19.60;99.90
15922;DHT22;8060;50.948;3.146;2022-08-21T07:55:48;19.70;99.90
15922;DHT22;8060;50.948;3.146;2022-08-21T07:58:16;19.80;99.90
15922;DHT22;8060;50.948;3.146;2022-08-21T08:00:45;19.90;99.90
15922;DHT22;8060;50.948;3.146;2022-08-21T08:03:13;20.10;99.90
15922;DHT22;8060;50.948;3.146;2022-08-21T08:05:55;20.10;99.90
15922;DHT22;8060;50.948;3.146;2022-08-21T08:08:23;20.20;99.90
15922;DHT22;8060;50.948;3.146;2022-08-21T08:10:52;20.30;99.90
15922;DHT22;8060;50.948;3.146;2022-08-21T08:13:20;20.60;99.90
15922;DHT22;8060;50.948;3.146;2022-08-21T08:15:50;20.90;99.90
15922;DHT22;8060;50.948;3.146;2022-08-21T08:18:18;21.30;99.90
15922;DHT22;8060;50.948;3.146;2022-08-21T08:20:46;21.50;99.90
15922;DHT22;8060;50.948;3.146;2022-08-21T08:23:14;21.60;99.90
15922;DHT22;8060;50.948;3.146;2022-08-21T08:25:43;21.70;99.90
15922;DHT22;8060;50.948;3.146;2022-08-21T08:28:11;21.80;99.90
15922;DHT22;8060;50.948;3.146;2022-08-21T08:30:44;21.80;99.90
15922;DHT22;8060;50.948;3.146;2022-08-21T08:33:14;21.80;99.90
15922;DHT22;8060;50.948;3.146;2022-08-21T08:35:44;21.80;99.90
15922;DHT22;8060;50.948;3.146;2022-08-21T08:38:15;21.80;99.90
15922;DHT22;8060;50.948;3.146;2022-08-21T08:40:52;21.80;99.90
15922;DHT22;8060;50.948;3.146;2022-08-21T08:43:22;21.80;99.90
15922;DHT22;8060;50.948;3.146;2022-08-21T08:45:51;21.90;99.90
15922;DHT22;8060;50.948;3.146;2022-08-21T08:48:42;22.00;99.90
15922;DHT22;8060;50.948;3.146;2022-08-21T08:51:22;22.00;99.90
15922;DHT22;8060;50.948;3.146;2022-08-21T08:53:55;22.00;99.90
15922;DHT22;8060;50.948;3.146;2022-08-21T08:56:29;22.20;99.90
15922;DHT22;8060;50.948;3.146;2022-08-21T08:59:08;22.50;99.90
15922;DHT22;8060;50.948;3.146;2022-08-21T09:01:37;22.80;99.90
15922;DHT22;8060;50.948;3.146;2022-08-21T09:04:07;22.70;99.90
15922;DHT22;8060;50.948;3.146;2022-08-21T09:07:00;22.60;99.90
15922;DHT22;8060;50.948;3.146;2022-08-21T09:09:38;22.70;99.90
15922;DHT22;8060;50.948;3.146;2022-08-21T09:12:14;22.70;99.90
15922;DHT22;8060;50.948;3.146;2022-08-21T09:14:53;22.60;99.90
15922;DHT22;8060;50.948;3.146;2022-08-21T09:17:33;22.50;99.90
15922;DHT22;8060;50.948;3.146;2022-08-21T09:20:16;22.50;99.90
15922;DHT22;8060;50.948;3.146;2022-08-21T09:22:58;22.50;99.90
15922;DHT22;8060;50.948;3.146;2022-08-21T09:25:33;22.50;99.90
15922;DHT22;8060;50.948;3.146;2022-08-21T09:28:02;22.50;99.90
15922;DHT22;8060;50.948;3.146;2022-08-21T09:30:32;22.70;99.90
15922;DHT22;8060;50.948;3.146;2022-08-21T09:33:00;22.80;99.90
15922;DHT22;8060;50.948;3.146;2022-08-21T09:35:30;22.90;99.90
15922;DHT22;8060;50.948;3.146;2022-08-21T09:38:01;23.10;99.90
15922;DHT22;8060;50.948;3.146;2022-08-21T09:40:36;23.20;99.90
15922;DHT22;8060;50.948;3.146;2022-08-21T09:43:07;23.40;99.90
15922;DHT22;8060;50.948;3.146;2022-08-21T09:45:45;23.50;99.90
15922;DHT22;8060;50.948;3.146;2022-08-21T09:48:15;23.70;99.90
15922;DHT22;8060;50.948;3.146;2022-08-21T09:50:48;23.60;99.90
15922;DHT22;8060;50.948;3.146;2022-08-21T09:53:19;23.80;99.90
15922;DHT22;8060;50.948;3.146;2022-08-21T09:55:51;24.20;99.90
15922;DHT22;8060;50.948;3.146;2022-08-21T09:58:39;24.80;99.90
15922;DHT22;8060;50.948;3.146;2022-08-21T10:01:13;25.00;99.90
15922;DHT22;8060;50.948;3.146;2022-08-21T10:03:42;24.90;99.90
15922;DHT22;8060;50.948;3.146;2022-08-21T10:06:24;24.70;99.90
15922;DHT22;8060;50.948;3.146;2022-08-21T10:09:04;24.80;99.90
15922;DHT22;8060;50.948;3.146;2022-08-21T10:11:33;24.90;99.90
15922;DHT22;8060;50.948;3.146;2022-08-21T10:14:10;25.00;99.90
15922;DHT22;8060;50.948;3.146;2022-08-21T10:16:48;25.00;99.90
15922;DHT22;8060;50.948;3.146;2022-08-21T10:19:26;24.90;99.90
15922;DHT22;8060;50.948;3.146;2022-08-21T10:22:11;24.80;99.90
15922;DHT22;8060;50.948;3.146;2022-08-21T10:24:47;24.60;99.90
15922;DHT22;8060;50.948;3.146;2022-08-21T10:27:25;24.60;99.90
15922;DHT22;8060;50.948;3.146;2022-08-21T10:30:00;24.80;99.90
15922;DHT22;8060;50.948;3.146;2022-08-21T10:32:59;24.80;99.90
15922;DHT22;8060;50.948;3.146;2022-08-21T10:35:34;24.80;99.90
15922;DHT22;8060;50.948;3.146;2022-08-21T10:38:35;25.10;99.90
15922;DHT22;8060;50.948;3.146;2022-08-21T10:41:40;25.50;99.90
15922;DHT22;8060;50.948;3.146;2022-08-21T10:44:23;26.20;99.90
15922;DHT22;8060;50.948;3.146;2022-08-21T10:47:06;26.50;99.90
15922;DHT22;8060;50.948;3.146;2022-08-21T10:49:39;27.00;99.90
15922;DHT22;8060;50.948;3.146;2022-08-21T10:52:27;27.40;99.90
15922;DHT22;8060;50.948;3.146;2022-08-21T10:55:06;27.60;99.90
15922;DHT22;8060;50.948;3.146;2022-08-21T10:57:41;27.90;99.90
15922;DHT22;8060;50.948;3.146;2022-08-21T11:00:14;28.00;99.90
15922;DHT22;8060;50.948;3.146;2022-08-21T11:02:48;28.00;99.90
15922;DHT22;8060;50.948;3.146;2022-08-21T11:05:20;27.80;99.90
15922;DHT22;8060;50.948;3.146;2022-08-21T11:07:54;27.40;99.90
15922;DHT22;8060;50.948;3.146;2022-08-21T11:10:29;27.20;99.90
15922;DHT22;8060;50.948;3.146;2022-08-21T11:13:04;27.20;99.90
15922;DHT22;8060;50.948;3.146;2022-08-21T11:15:39;27.10;99.90
15922;DHT22;8060;50.948;3.146;2022-08-21T11:18:18;27.00;99.90
15922;DHT22;8060;50.948;3.146;2022-08-21T11:20:59;26.90;99.90
15922;DHT22;8060;50.948;3.146;2022-08-21T11:23:33;26.70;99.90
15922;DHT22;8060;50.948;3.146;2022-08-21T11:26:09;26.40;99.90
15922;DHT22;8060;50.948;3.146;2022-08-21T11:28:45;26.10;99.90
15922;DHT22;8060;50.948;3.146;2022-08-21T11:31:27;25.90;99.90
15922;DHT22;8060;50.948;3.146;2022-08-21T11:34:09;25.80;99.90
15922;DHT22;8060;50.948;3.146;2022-08-21T11:36:49;25.60;99.90
15922;DHT22;8060;50.948;3.146;2022-08-21T11:39:25;25.60;99.90
15922;DHT22;8060;50.948;3.146;2022-08-21T11:42:04;25.40;99.90
15922;DHT22;8060;50.948;3.146;2022-08-21T11:44:44;25.30;99.90
15922;DHT22;8060;50.948;3.146;2022-08-21T11:47:21;25.50;99.90
15922;DHT22;8060;50.948;3.146;2022-08-21T11:50:06;25.60;99.90
15922;DHT22;8060;50.948;3.146;2022-08-21T11:53:05;25.60;99.90
15922;DHT22;8060;50.948;3.146;2022-08-21T11:55:40;25.50;99.90
15922;DHT22;8060;50.948;3.146;2022-08-21T11:58:15;25.40;99.90
15922;DHT22;8060;50.948;3.146;2022-08-21T12:00:49;25.20;99.90
15922;DHT22;8060;50.948;3.146;2022-08-21T12:03:27;25.10;99.90
15922;DHT22;8060;50.948;3.146;2022-08-21T12:05:58;25.20;99.90
15922;DHT22;8060;50.948;3.146;2022-08-21T12:08:28;25.00;99.90
15922;DHT22;8060;50.948;3.146;2022-08-21T12:11:03;24.90;99.90
15922;DHT22;8060;50.948;3.146;2022-08-21T12:13:35;24.80;99.90
15922;DHT22;8060;50.948;3.146;2022-08-21T12:16:13;24.70;99.90
15922;DHT22;8060;50.948;3.146;2022-08-21T12:18:42;24.60;99.90
15922;DHT22;8060;50.948;3.146;2022-08-21T12:21:21;24.70;99.90
15922;DHT22;8060;50.948;3.146;2022-08-21T12:24:02;24.80;99.90
15922;DHT22;8060;50.948;3.146;2022-08-21T12:26:33;24.80;99.90
15922;DHT22;8060;50.948;3.146;2022-08-21T12:29:11;24.90;99.90
15922;DHT22;8060;50.948;3.146;2022-08-21T12:31:53;25.10;99.90
15922;DHT22;8060;50.948;3.146;2022-08-21T12:34:24;25.40;99.90
15922;DHT22;8060;50.948;3.146;2022-08-21T12:36:57;25.70;99.90
15922;DHT22;8060;50.948;3.146;2022-08-21T12:39:29;25.90;99.90
15922;DHT22;8060;50.948;3.146;2022-08-21T12:42:00;25.90;99.90
15922;DHT22;8060;50.948;3.146;2022-08-21T12:44:37;26.00;99.90
15922;DHT22;8060;50.948;3.146;2022-08-21T12:47:15;26.00;99.90
15922;DHT22;8060;50.948;3.146;2022-08-21T12:49:54;26.10;99.90
15922;DHT22;8060;50.948;3.146;2022-08-21T12:52:29;26.00;99.90
15922;DHT22;8060;50.948;3.146;2022-08-21T12:55:06;26.00;99.90
15922;DHT22;8060;50.948;3.146;2022-08-21T12:57:35;25.90;99.90
15922;DHT22;8060;50.948;3.146;2022-08-21T13:00:08;25.70;99.90
15922;DHT22;8060;50.948;3.146;2022-08-21T13:02:42;25.50;99.90
15922;DHT22;8060;50.948;3.146;2022-08-21T13:05:14;25.40;99.90
15922;DHT22;8060;50.948;3.146;2022-08-21T13:07:45;25.40;99.90
15922;DHT22;8060;50.948;3.146;2022-08-21T13:10:18;25.40;99.90
15922;DHT22;8060;50.948;3.146;2022-08-21T13:12:47;25.40;99.90
15922;DHT22;8060;50.948;3.146;2022-08-21T13:15:24;25.40;99.90
15922;DHT22;8060;50.948;3.146;2022-08-21T13:17:59;25.30;99.90
15922;DHT22;8060;50.948;3.146;2022-08-21T13:20:32;25.20;99.90
15922;DHT22;8060;50.948;3.146;2022-08-21T13:23:01;25.20;99.90
15922;DHT22;8060;50.948;3.146;2022-08-21T13:25:35;25.20;99.90
15922;DHT22;8060;50.948;3.146;2022-08-21T13:28:06;25.00;99.90
15922;DHT22;8060;50.948;3.146;2022-08-21T13:30:41;25.00;99.90
15922;DHT22;8060;50.948;3.146;2022-08-21T13:33:12;25.10;99.90
15922;DHT22;8060;50.948;3.146;2022-08-21T13:35:50;25.10;99.90
15922;DHT22;8060;50.948;3.146;2022-08-21T13:38:20;25.10;99.90
15922;DHT22;8060;50.948;3.146;2022-08-21T13:40:58;25.10;99.90
15922;DHT22;8060;50.948;3.146;2022-08-21T13:43:32;25.00;99.90
15922;DHT22;8060;50.948;3.146;2022-08-21T13:46:08;24.90;99.90
15922;DHT22;8060;50.948;3.146;2022-08-21T13:48:38;24.90;99.90
15922;DHT22;8060;50.948;3.146;2022-08-21T13:51:07;24.90;99.90
15922;DHT22;8060;50.948;3.146;2022-08-21T13:53:44;25.10;99.90
15922;DHT22;8060;50.948;3.146;2022-08-21T13:56:22;24.90;99.90
15922;DHT22;8060;50.948;3.146;2022-08-21T13:58:51;24.90;99.90
15922;DHT22;8060;50.948;3.146;2022-08-21T14:01:23;25.00;99.90
15922;DHT22;8060;50.948;3.146;2022-08-21T14:03:54;25.00;99.90
15922;DHT22;8060;50.948;3.146;2022-08-21T14:06:26;25.10;99.90
15922;DHT22;8060;50.948;3.146;2022-08-21T14:08:58;25.20;99.90
15922;DHT22;8060;50.948;3.146;2022-08-21T14:11:31;25.30;99.90
15922;DHT22;8060;50.948;3.146;2022-08-21T14:14:02;25.50;99.90
15922;DHT22;8060;50.948;3.146;2022-08-21T14:16:44;25.70;99.90
15922;DHT22;8060;50.948;3.146;2022-08-21T14:19:19;26.10;99.90
15922;DHT22;8060;50.948;3.146;2022-08-21T14:21:48;26.20;99.90
15922;DHT22;8060;50.948;3.146;2022-08-21T14:24:26;26.30;99.90
15922;DHT22;8060;50.948;3.146;2022-08-21T14:26:56;26.60;99.90
15922;DHT22;8060;50.948;3.146;2022-08-21T14:29:27;26.80;99.90
15922;DHT22;8060;50.948;3.146;2022-08-21T14:32:12;26.90;99.90
15922;DHT22;8060;50.948;3.146;2022-08-21T14:34:47;27.10;99.90
15922;DHT22;8060;50.948;3.146;2022-08-21T14:37:15;27.40;99.90
15922;DHT22;8060;50.948;3.146;2022-08-21T14:39:43;27.50;99.90
15922;DHT22;8060;50.948;3.146;2022-08-21T14:42:12;27.70;99.90
15922;DHT22;8060;50.948;3.146;2022-08-21T14:44:40;28.00;99.90
15922;DHT22;8060;50.948;3.146;2022-08-21T14:47:10;28.40;99.90
15922;DHT22;8060;50.948;3.146;2022-08-21T14:49:38;28.10;99.90
15922;DHT22;8060;50.948;3.146;2022-08-21T14:52:06;27.60;99.90
15922;DHT22;8060;50.948;3.146;2022-08-21T14:54:35;27.30;99.90
15922;DHT22;8060;50.948;3.146;2022-08-21T14:57:08;27.30;99.90
15922;DHT22;8060;50.948;3.146;2022-08-21T14:59:37;27.00;99.90
15922;DHT22;8060;50.948;3.146;2022-08-21T15:02:06;26.80;99.90
15922;DHT22;8060;50.948;3.146;2022-08-21T15:04:35;26.60;99.90
15922;DHT22;8060;50.948;3.146;2022-08-21T15:07:04;26.40;99.90
15922;DHT22;8060;50.948;3.146;2022-08-21T15:09:32;26.30;99.90
15922;DHT22;8060;50.948;3.146;2022-08-21T15:12:02;26.20;99.90
15922;DHT22;8060;50.948;3.146;2022-08-21T15:14:33;26.20;99.90
15922;DHT22;8060;50.948;3.146;2022-08-21T15:17:02;26.30;99.90
15922;DHT22;8060;50.948;3.146;2022-08-21T15:19:31;26.40;99.90
15922;DHT22;8060;50.948;3.146;2022-08-21T15:22:00;26.30;99.90
15922;DHT22;8060;50.948;3.146;2022-08-21T15:24:28;26.40;99.90
15922;DHT22;8060;50.948;3.146;2022-08-21T15:26:59;26.50;99.90
15922;DHT22;8060;50.948;3.146;2022-08-21T15:29:29;26.50;99.90
15922;DHT22;8060;50.948;3.146;2022-08-21T15:32:01;26.60;99.90
15922;DHT22;8060;50.948;3.146;2022-08-21T15:34:30;26.50;99.90
15922;DHT22;8060;50.948;3.146;2022-08-21T15:37:00;26.50;99.90
15922;DHT22;8060;50.948;3.146;2022-08-21T15:39:28;26.30;99.90
15922;DHT22;8060;50.948;3.146;2022-08-21T15:41:58;26.00;99.90
15922;DHT22;8060;50.948;3.146;2022-08-21T15:44:36;25.90;99.90
15922;DHT22;8060;50.948;3.146;2022-08-21T15:47:06;25.80;99.90
15922;DHT22;8060;50.948;3.146;2022-08-21T15:49:35;25.70;99.90
15922;DHT22;8060;50.948;3.146;2022-08-21T15:52:04;25.60;99.90
15922;DHT22;8060;50.948;3.146;2022-08-21T15:54:32;25.60;99.90
15922;DHT22;8060;50.948;3.146;2022-08-21T15:57:00;25.60;99.90
15922;DHT22;8060;50.948;3.146;2022-08-21T15:59:32;25.40;99.90
15922;DHT22;8060;50.948;3.146;2022-08-21T16:02:07;25.40;99.90
15922;DHT22;8060;50.948;3.146;2022-08-21T16:04:36;25.40;99.90
15922;DHT22;8060;50.948;3.146;2022-08-21T16:07:05;25.40;99.90
15922;DHT22;8060;50.948;3.146;2022-08-21T16:09:35;25.40;99.90
15922;DHT22;8060;50.948;3.146;2022-08-21T16:12:04;25.40;99.90
15922;DHT22;8060;50.948;3.146;2022-08-21T16:14:34;25.30;99.90
15922;DHT22;8060;50.948;3.146;2022-08-21T16:17:04;25.20;99.90
15922;DHT22;8060;50.948;3.146;2022-08-21T16:19:33;25.10;99.90
15922;DHT22;8060;50.948;3.146;2022-08-21T16:22:02;25.00;99.90
15922;DHT22;8060;50.948;3.146;2022-08-21T16:24:32;25.00;99.90
15922;DHT22;8060;50.948;3.146;2022-08-21T16:27:01;24.90;99.90
15922;DHT22;8060;50.948;3.146;2022-08-21T16:29:35;24.90;99.90
15922;DHT22;8060;50.948;3.146;2022-08-21T16:32:06;24.80;99.90
15922;DHT22;8060;50.948;3.146;2022-08-21T16:34:35;24.70;99.90
15922;DHT22;8060;50.948;3.146;2022-08-21T16:37:03;24.70;99.90
15922;DHT22;8060;50.948;3.146;2022-08-21T16:39:32;24.60;99.90
15922;DHT22;8060;50.948;3.146;2022-08-21T16:42:00;24.60;99.90
15922;DHT22;8060;50.948;3.146;2022-08-21T16:44:29;24.50;99.90
15922;DHT22;8060;50.948;3.146;2022-08-21T16:46:57;24.50;99.90
15922;DHT22;8060;50.948;3.146;2022-08-21T16:49:25;24.60;99.90
15922;DHT22;8060;50.948;3.146;2022-08-21T16:51:53;24.50;99.90
15922;DHT22;8060;50.948;3.146;2022-08-21T16:54:21;24.50;99.90
15922;DHT22;8060;50.948;3.146;2022-08-21T16:56:51;24.50;99.90
15922;DHT22;8060;50.948;3.146;2022-08-21T16:59:20;24.50;99.90
15922;DHT22;8060;50.948;3.146;2022-08-21T17:01:48;24.50;99.90
15922;DHT22;8060;50.948;3.146;2022-08-21T17:04:16;24.50;99.90
15922;DHT22;8060;50.948;3.146;2022-08-21T17:06:46;24.50;99.90
15922;DHT22;8060;50.948;3.146;2022-08-21T17:09:14;24.40;99.90
15922;DHT22;8060;50.948;3.146;2022-08-21T17:11:44;24.30;99.90
15922;DHT22;8060;50.948;3.146;2022-08-21T17:14:19;24.20;99.90
15922;DHT22;8060;50.948;3.146;2022-08-21T17:16:51;24.10;99.90
15922;DHT22;8060;50.948;3.146;2022-08-21T17:19:20;24.10;99.90
15922;DHT22;8060;50.948;3.146;2022-08-21T17:21:48;24.10;99.90
15922;DHT22;8060;50.948;3.146;2022-08-21T17:24:16;24.00;99.90
15922;DHT22;8060;50.948;3.146;2022-08-21T17:26:45;23.90;99.90
15922;DHT22;8060;50.948;3.146;2022-08-21T17:29:13;23.90;99.90
15922;DHT22;8060;50.948;3.146;2022-08-21T17:31:43;23.90;99.90
15922;DHT22;8060;50.948;3.146;2022-08-21T17:34:13;23.90;99.90
15922;DHT22;8060;50.948;3.146;2022-08-21T17:36:41;23.70;99.90
15922;DHT22;8060;50.948;3.146;2022-08-21T17:39:09;23.70;99.90
15922;DHT22;8060;50.948;3.146;2022-08-21T17:41:44;23.70;99.90
15922;DHT22;8060;50.948;3.146;2022-08-21T17:44:14;23.80;99.90
15922;DHT22;8060;50.948;3.146;2022-08-21T17:46:46;23.80;99.90
15922;DHT22;8060;50.948;3.146;2022-08-21T17:49:14;23.80;99.90
15922;DHT22;8060;50.948;3.146;2022-08-21T17:51:42;23.80;99.90
15922;DHT22;8060;50.948;3.146;2022-08-21T17:54:10;23.70;99.90
15922;DHT22;8060;50.948;3.146;2022-08-21T17:56:40;23.50;99.90
15922;DHT22;8060;50.948;3.146;2022-08-21T17:59:08;23.50;99.90
15922;DHT22;8060;50.948;3.146;2022-08-21T18:01:39;23.50;99.90
15922;DHT22;8060;50.948;3.146;2022-08-21T18:04:10;23.50;99.90
15922;DHT22;8060;50.948;3.146;2022-08-21T18:06:40;23.40;99.90
15922;DHT22;8060;50.948;3.146;2022-08-21T18:09:10;23.30;99.90
15922;DHT22;8060;50.948;3.146;2022-08-21T18:11:39;23.20;99.90
15922;DHT22;8060;50.948;3.146;2022-08-21T18:14:09;23.10;99.90
15922;DHT22;8060;50.948;3.146;2022-08-21T18:16:38;23.10;99.90
15922;DHT22;8060;50.948;3.146;2022-08-21T18:19:08;23.00;99.90
15922;DHT22;8060;50.948;3.146;2022-08-21T18:21:38;22.90;99.90
15922;DHT22;8060;50.948;3.146;2022-08-21T18:24:07;22.90;99.90
15922;DHT22;8060;50.948;3.146;2022-08-21T18:26:37;22.90;99.90
15922;DHT22;8060;50.948;3.146;2022-08-21T18:29:09;22.80;99.90
15922;DHT22;8060;50.948;3.146;2022-08-21T18:31:39;22.80;99.90
15922;DHT22;8060;50.948;3.146;2022-08-21T18:34:16;22.80;99.90
15922;DHT22;8060;50.948;3.146;2022-08-21T18:36:47;22.80;99.90
15922;DHT22;8060;50.948;3.146;2022-08-21T18:39:16;22.80;99.90
15922;DHT22;8060;50.948;3.146;2022-08-21T18:42:06;22.70;99.90
15922;DHT22;8060;50.948;3.146;2022-08-21T18:44:36;22.60;99.90
15922;DHT22;8060;50.948;3.146;2022-08-21T18:47:07;22.70;99.90
15922;DHT22;8060;50.948;3.146;2022-08-21T18:49:37;22.60;99.90
15922;DHT22;8060;50.948;3.146;2022-08-21T18:52:27;22.60;99.90
15922;DHT22;8060;50.948;3.146;2022-08-21T18:54:56;22.60;99.90
15922;DHT22;8060;50.948;3.146;2022-08-21T18:57:31;22.60;99.90
15922;DHT22;8060;50.948;3.146;2022-08-21T19:00:00;22.60;99.90
15922;DHT22;8060;50.948;3.146;2022-08-21T19:02:54;22.50;99.90
15922;DHT22;8060;50.948;3.146;2022-08-21T19:05:23;22.50;99.90
15922;DHT22;8060;50.948;3.146;2022-08-21T19:07:53;22.50;99.90
15922;DHT22;8060;50.948;3.146;2022-08-21T19:10:22;22.60;99.90
15922;DHT22;8060;50.948;3.146;2022-08-21T19:12:56;22.60;99.90
15922;DHT22;8060;50.948;3.146;2022-08-21T19:15:26;22.60;99.90
15922;DHT22;8060;50.948;3.146;2022-08-21T19:17:56;22.50;99.90
15922;DHT22;8060;50.948;3.146;2022-08-21T19:20:26;22.50;99.90
15922;DHT22;8060;50.948;3.146;2022-08-21T19:22:56;22.60;99.90
15922;DHT22;8060;50.948;3.146;2022-08-21T19:25:25;22.40;99.90
15922;DHT22;8060;50.948;3.146;2022-08-21T19:28:00;22.30;99.90
15922;DHT22;8060;50.948;3.146;2022-08-21T19:30:28;22.30;99.90
15922;DHT22;8060;50.948;3.146;2022-08-21T19:32:57;22.40;99.90
15922;DHT22;8060;50.948;3.146;2022-08-21T19:35:25;22.40;99.90
15922;DHT22;8060;50.948;3.146;2022-08-21T19:37:54;22.30;99.90
15922;DHT22;8060;50.948;3.146;2022-08-21T19:40:23;22.20;99.90
15922;DHT22;8060;50.948;3.146;2022-08-21T19:42:51;22.20;99.90
15922;DHT22;8060;50.948;3.146;2022-08-21T19:45:19;22.20;99.90
15922;DHT22;8060;50.948;3.146;2022-08-21T19:47:54;22.10;99.90
15922;DHT22;8060;50.948;3.146;2022-08-21T19:50:24;22.10;99.90
15922;DHT22;8060;50.948;3.146;2022-08-21T19:52:53;22.10;99.90
15922;DHT22;8060;50.948;3.146;2022-08-21T19:55:22;22.10;99.90
15922;DHT22;8060;50.948;3.146;2022-08-21T19:57:51;22.10;99.90
15922;DHT22;8060;50.948;3.146;2022-08-21T20:00:20;22.10;99.90
15922;DHT22;8060;50.948;3.146;2022-08-21T20:02:49;22.10;99.90
15922;DHT22;8060;50.948;3.146;2022-08-21T20:05:19;22.10;99.90
15922;DHT22;8060;50.948;3.146;2022-08-21T20:07:47;22.10;99.90
15922;DHT22;8060;50.948;3.146;2022-08-21T20:10:16;22.00;99.90
15922;DHT22;8060;50.948;3.146;2022-08-21T20:12:48;22.00;99.90
15922;DHT22;8060;50.948;3.146;2022-08-21T20:15:18;22.00;99.90
15922;DHT22;8060;50.948;3.146;2022-08-21T20:17:48;22.00;99.90
15922;DHT22;8060;50.948;3.146;2022-08-21T20:20:18;21.90;99.90
15922;DHT22;8060;50.948;3.146;2022-08-21T20:22:47;21.90;99.90
15922;DHT22;8060;50.948;3.146;2022-08-21T20:25:15;21.90;99.90
15922;DHT22;8060;50.948;3.146;2022-08-21T20:27:48;21.90;99.90
15922;DHT22;8060;50.948;3.146;2022-08-21T20:30:16;21.90;99.90
15922;DHT22;8060;50.948;3.146;2022-08-21T20:32:48;21.80;99.90
15922;DHT22;8060;50.948;3.146;2022-08-21T20:35:17;21.80;99.90
15922;DHT22;8060;50.948;3.146;2022-08-21T20:37:48;21.80;99.90
15922;DHT22;8060;50.948;3.146;2022-08-21T20:40:25;21.80;99.90
15922;DHT22;8060;50.948;3.146;2022-08-21T20:43:00;21.70;99.90
15922;DHT22;8060;50.948;3.146;2022-08-21T20:45:30;21.70;99.90
15922;DHT22;8060;50.948;3.146;2022-08-21T20:48:02;21.70;99.90
15922;DHT22;8060;50.948;3.146;2022-08-21T20:50:35;21.60;99.90
15922;DHT22;8060;50.948;3.146;2022-08-21T20:53:07;21.60;99.90
15922;DHT22;8060;50.948;3.146;2022-08-21T20:55:44;21.60;99.90
15922;DHT22;8060;50.948;3.146;2022-08-21T20:58:23;21.50;99.90
15922;DHT22;8060;50.948;3.146;2022-08-21T21:00:57;21.50;99.90
15922;DHT22;8060;50.948;3.146;2022-08-21T21:03:31;21.50;99.90
15922;DHT22;8060;50.948;3.146;2022-08-21T21:06:03;21.40;99.90
15922;DHT22;8060;50.948;3.146;2022-08-21T21:08:38;21.40;99.90
15922;DHT22;8060;50.948;3.146;2022-08-21T21:11:16;21.50;99.90
15922;DHT22;8060;50.948;3.146;2022-08-21T21:13:52;21.50;99.90
15922;DHT22;8060;50.948;3.146;2022-08-21T21:16:25;21.50;99.90
15922;DHT22;8060;50.948;3.146;2022-08-21T21:18:58;21.50;99.90
15922;DHT22;8060;50.948;3.146;2022-08-21T21:21:30;21.50;99.90
15922;DHT22;8060;50.948;3.146;2022-08-21T21:24:05;21.50;99.90
15922;DHT22;8060;50.948;3.146;2022-08-21T21:26:38;21.50;99.90
15922;DHT22;8060;50.948;3.146;2022-08-21T21:29:19;21.50;99.90
15922;DHT22;8060;50.948;3.146;2022-08-21T21:31:49;21.40;99.90
15922;DHT22;8060;50.948;3.146;2022-08-21T21:34:19;21.40;99.90
15922;DHT22;8060;50.948;3.146;2022-08-21T21:36:51;21.40;99.90
15922;DHT22;8060;50.948;3.146;2022-08-21T21:39:26;21.40;99.90
15922;DHT22;8060;50.948;3.146;2022-08-21T21:42:07;21.40;99.90
15922;DHT22;8060;50.948;3.146;2022-08-21T21:45:00;21.40;99.90
15922;DHT22;8060;50.948;3.146;2022-08-21T21:47:38;21.30;99.90
15922;DHT22;8060;50.948;3.146;2022-08-21T21:50:20;21.30;99.90
15922;DHT22;8060;50.948;3.146;2022-08-21T21:52:59;21.30;99.90
15922;DHT22;8060;50.948;3.146;2022-08-21T21:55:50;21.30;99.90
15922;DHT22;8060;50.948;3.146;2022-08-21T21:58:33;21.20;99.90
15922;DHT22;8060;50.948;3.146;2022-08-21T22:01:10;21.30;99.90
15922;DHT22;8060;50.948;3.146;2022-08-21T22:03:45;21.30;99.90